sensor_id;sensor_type;location;lat;lon;timestamp;pressure;altitude;pressure_sealevel;temperature;humidity
63970;BME280;50156;37.772;-122.432;2022-08-21T00:02:15;100541.04;;;20.39;100.00
63970;BME280;50156;37.772;-122.432;2022-08-21T00:04:44;100545.22;;;19.93;100.00
63970;BME280;50156;37.772;-122.432;2022-08-21T00:07:12;100542.02;;;19.93;100.00
63970;BME280;50156;37.772;-122.432;2022-08-21T00:09:41;100541.87;;;19.70;100.00
63970;BME280;50156;37.772;-122.432;2022-08-21T00:12:10;100544.62;;;19.39;100.00
63970;BME280;50156;37.772;-122.432;2022-08-21T00:14:39;100545.20;;;19.51;100.00
63970;BME280;50156;37.772;-122.432;2022-08-21T00:17:08;100544.39;;;19.61;100.00
63970;BME280;50156;37.772;-122.432;2022-08-21T00:19:37;100546.84;;;19.40;100.00
63970;BME280;50156;37.772;-122.432;2022-08-21T00:22:05;100544.96;;;19.38;100.00
63970;BME280;50156;37.772;-122.432;2022-08-21T00:24:33;100542.72;;;19.35;100.00
63970;BME280;50156;37.772;-122.432;2022-08-21T00:27:02;100537.05;;;19.22;100.00
63970;BME280;50156;37.772;-122.432;2022-08-21T00:29:31;100540.98;;;19.47;100.00
63970;BME280;50156;37.772;-122.432;2022-08-21T00:31:59;100536.20;;;19.35;100.00
63970;BME280;50156;37.772;-122.432;2022-08-21T00:34:27;100544.93;;;18.97;100.00
63970;BME280;50156;37.772;-122.432;2022-08-21T00:36:55;100542.91;;;19.05;100.00
63970;BME280;50156;37.772;-122.432;2022-08-21T00:39:24;100536.87;;;18.83;100.00
63970;BME280;50156;37.772;-122.432;2022-08-21T00:41:52;100535.19;;;18.53;100.00
63970;BME280;50156;37.772;-122.432;2022-08-21T00:44:21;100534.89;;;18.43;100.00
63970;BME280;50156;37.772;-122.432;2022-08-21T00:46:50;100538.12;;;18.17;100.00
63970;BME280;50156;37.772;-122.432;2022-08-21T00:49:19;100537.82;;;17.63;100.00
63970;BME280;50156;37.772;-122.432;2022-08-21T00:51:50;100532.14;;;17.19;100.00
63970;BME280;50156;37.772;-122.432;2022-08-21T00:54:21;100530.58;;;17.11;100.00
63970;BME280;50156;37.772;-122.432;2022-08-21T00:56:54;100530.41;;;17.00;100.00
63970;BME280;50156;37.772;-122.432;2022-08-21T00:59:24;100534.48;;;17.14;100.00
63970;BME280;50156;37.772;-122.432;2022-08-21T01:01:54;100531.45;;;17.07;100.00
63970;BME280;50156;37.772;-122.432;2022-08-21T01:04:23;100533.59;;;16.92;100.00
63970;BME280;50156;37.772;-122.432;2022-08-21T01:06:53;100523.37;;;17.25;100.00
63970;BME280;50156;37.772;-122.432;2022-08-21T01:09:21;100531.43;;;17.18;100.00
63970;BME280;50156;37.772;-122.432;2022-08-21T01:11:50;100523.61;;;17.06;100.00
63970;BME280;50156;37.772;-122.432;2022-08-21T01:14:19;100526.26;;;17.25;100.00
63970;BME280;50156;37.772;-122.432;2022-08-21T01:16:50;100523.06;;;17.12;100.00
63970;BME280;50156;37.772;-122.432;2022-08-21T01:19:21;100521.66;;;17.13;100.00
63970;BME280;50156;37.772;-122.432;2022-08-21T01:21:49;100520.59;;;17.07;100.00
63970;BME280;50156;37.772;-122.432;2022-08-21T01:24:18;100519.65;;;16.90;100.00
63970;BME280;50156;37.772;-122.432;2022-08-21T01:26:47;100529.12;;;17.05;100.00
63970;BME280;50156;37.772;-122.432;2022-08-21T01:29:26;100523.47;;;16.92;100.00
63970;BME280;50156;37.772;-122.432;2022-08-21T01:31:58;100524.91;;;16.90;100.00
63970;BME280;50156;37.772;-122.432;2022-08-21T01:34:26;100530.32;;;16.99;100.00
63970;BME280;50156;37.772;-122.432;2022-08-21T01:36:55;100531.74;;;16.82;100.00
63970;BME280;50156;37.772;-122.432;2022-08-21T01:39:23;100531.45;;;16.78;100.00
63970;BME280;50156;37.772;-122.432;2022-08-21T01:41:52;100530.49;;;17.02;100.00
63970;BME280;50156;37.772;-122.432;2022-08-21T01:44:22;100532.97;;;16.88;100.00
63970;BME280;50156;37.772;-122.432;2022-08-21T01:46:51;100530.40;;;16.89;100.00
63970;BME280;50156;37.772;-122.432;2022-08-21T01:49:20;100529.62;;;16.96;100.00
63970;BME280;50156;37.772;-122.432;2022-08-21T01:51:48;100527.63;;;17.43;100.00
63970;BME280;50156;37.772;-122.432;2022-08-21T01:54:17;100528.87;;;17.47;100.00
63970;BME280;50156;37.772;-122.432;2022-08-21T01:56:48;100528.10;;;17.69;100.00
63970;BME280;50156;37.772;-122.432;2022-08-21T01:59:19;100534.00;;;17.12;100.00
63970;BME280;50156;37.772;-122.432;2022-08-21T02:01:48;100539.55;;;16.92;100.00
63970;BME280;50156;37.772;-122.432;2022-08-21T02:04:17;100536.40;;;16.49;100.00
63970;BME280;50156;37.772;-122.432;2022-08-21T02:06:45;100544.88;;;16.02;100.00
63970;BME280;50156;37.772;-122.432;2022-08-21T02:09:14;100559.30;;;15.55;100.00
63970;BME280;50156;37.772;-122.432;2022-08-21T02:11:43;100557.14;;;15.30;100.00
63970;BME280;50156;37.772;-122.432;2022-08-21T02:14:14;100555.68;;;15.18;100.00
63970;BME280;50156;37.772;-122.432;2022-08-21T02:16:44;100557.71;;;15.10;100.00
63970;BME280;50156;37.772;-122.432;2022-08-21T02:19:14;100567.81;;;14.89;100.00
63970;BME280;50156;37.772;-122.432;2022-08-21T02:21:43;100573.85;;;14.85;100.00
63970;BME280;50156;37.772;-122.432;2022-08-21T02:24:13;100571.50;;;14.58;100.00
63970;BME280;50156;37.772;-122.432;2022-08-21T02:26:41;100577.54;;;14.57;100.00
63970;BME280;50156;37.772;-122.432;2022-08-21T02:29:10;100584.55;;;14.52;100.00
63970;BME280;50156;37.772;-122.432;2022-08-21T02:31:39;100588.37;;;14.33;100.00
63970;BME280;50156;37.772;-122.432;2022-08-21T02:34:07;100587.13;;;14.29;100.00
63970;BME280;50156;37.772;-122.432;2022-08-21T02:36:36;100595.05;;;14.34;100.00
63970;BME280;50156;37.772;-122.432;2022-08-21T02:39:05;100598.34;;;14.45;100.00
63970;BME280;50156;37.772;-122.432;2022-08-21T02:41:33;100595.12;;;14.36;100.00
63970;BME280;50156;37.772;-122.432;2022-08-21T02:44:02;100595.92;;;14.44;100.00
63970;BME280;50156;37.772;-122.432;2022-08-21T02:46:30;100595.29;;;14.45;100.00
63970;BME280;50156;37.772;-122.432;2022-08-21T02:48:59;100591.05;;;14.40;100.00
63970;BME280;50156;37.772;-122.432;2022-08-21T02:51:27;100592.91;;;14.41;100.00
63970;BME280;50156;37.772;-122.432;2022-08-21T02:53:56;100592.90;;;14.44;100.00
63970;BME280;50156;37.772;-122.432;2022-08-21T02:56:24;100597.12;;;14.52;100.00
63970;BME280;50156;37.772;-122.432;2022-08-21T02:58:54;100594.41;;;14.49;100.00
63970;BME280;50156;37.772;-122.432;2022-08-21T03:01:22;100599.11;;;14.39;100.00
63970;BME280;50156;37.772;-122.432;2022-08-21T03:03:51;100603.59;;;14.41;100.00
63970;BME280;50156;37.772;-122.432;2022-08-21T03:06:21;100612.34;;;14.43;100.00
63970;BME280;50156;37.772;-122.432;2022-08-21T03:08:50;100618.28;;;14.36;100.00
63970;BME280;50156;37.772;-122.432;2022-08-21T03:11:18;100626.74;;;14.40;100.00
63970;BME280;50156;37.772;-122.432;2022-08-21T03:13:47;100630.32;;;14.48;100.00
63970;BME280;50156;37.772;-122.432;2022-08-21T03:16:15;100634.14;;;14.39;100.00
63970;BME280;50156;37.772;-122.432;2022-08-21T03:18:44;100638.86;;;14.31;100.00
63970;BME280;50156;37.772;-122.432;2022-08-21T03:21:12;100642.01;;;14.29;100.00
63970;BME280;50156;37.772;-122.432;2022-08-21T03:23:41;100643.89;;;14.20;100.00
63970;BME280;50156;37.772;-122.432;2022-08-21T03:26:09;100650.10;;;14.26;100.00
63970;BME280;50156;37.772;-122.432;2022-08-21T03:28:39;100659.79;;;14.20;100.00
63970;BME280;50156;37.772;-122.432;2022-08-21T03:31:08;100664.83;;;14.23;100.00
63970;BME280;50156;37.772;-122.432;2022-08-21T03:33:37;100670.12;;;14.23;100.00
63970;BME280;50156;37.772;-122.432;2022-08-21T03:36:07;100679.92;;;14.17;100.00
63970;BME280;50156;37.772;-122.432;2022-08-21T03:38:37;100689.25;;;14.10;100.00
63970;BME280;50156;37.772;-122.432;2022-08-21T03:41:07;100693.22;;;14.02;100.00
63970;BME280;50156;37.772;-122.432;2022-08-21T03:43:37;100694.50;;;14.07;100.00
63970;BME280;50156;37.772;-122.432;2022-08-21T03:46:06;100700.90;;;14.01;100.00
63970;BME280;50156;37.772;-122.432;2022-08-21T03:48:36;100710.03;;;13.94;100.00
63970;BME280;50156;37.772;-122.432;2022-08-21T03:51:05;100713.69;;;13.95;100.00
63970;BME280;50156;37.772;-122.432;2022-08-21T03:53:35;100716.75;;;13.85;100.00
63970;BME280;50156;37.772;-122.432;2022-08-21T03:56:05;100720.07;;;13.84;100.00
63970;BME280;50156;37.772;-122.432;2022-08-21T03:58:35;100726.04;;;13.93;100.00
63970;BME280;50156;37.772;-122.432;2022-08-21T04:01:09;100730.05;;;13.94;100.00
63970;BME280;50156;37.772;-122.432;2022-08-21T04:03:39;100735.94;;;13.92;100.00
63970;BME280;50156;37.772;-122.432;2022-08-21T04:06:08;100734.62;;;13.97;100.00
63970;BME280;50156;37.772;-122.432;2022-08-21T04:08:37;100737.52;;;13.99;100.00
63970;BME280;50156;37.772;-122.432;2022-08-21T04:11:06;100747.99;;;14.00;100.00
63970;BME280;50156;37.772;-122.432;2022-08-21T04:13:36;100741.90;;;13.93;100.00
63970;BME280;50156;37.772;-122.432;2022-08-21T04:16:06;100746.65;;;13.97;100.00
63970;BME280;50156;37.772;-122.432;2022-08-21T04:18:35;100745.92;;;13.98;100.00
63970;BME280;50156;37.772;-122.432;2022-08-21T04:21:04;100744.03;;;13.99;100.00
63970;BME280;50156;37.772;-122.432;2022-08-21T04:23:33;100754.81;;;13.93;100.00
63970;BME280;50156;37.772;-122.432;2022-08-21T04:26:02;100761.04;;;13.92;100.00
63970;BME280;50156;37.772;-122.432;2022-08-21T04:28:31;100754.61;;;14.00;100.00
63970;BME280;50156;37.772;-122.432;2022-08-21T04:30:59;100762.04;;;13.98;100.00
63970;BME280;50156;37.772;-122.432;2022-08-21T04:33:27;100765.37;;;13.94;100.00
63970;BME280;50156;37.772;-122.432;2022-08-21T04:35:56;100766.84;;;14.04;100.00
63970;BME280;50156;37.772;-122.432;2022-08-21T04:38:24;100763.73;;;14.06;100.00
63970;BME280;50156;37.772;-122.432;2022-08-21T04:40:53;100772.07;;;14.04;100.00
63970;BME280;50156;37.772;-122.432;2022-08-21T04:43:22;100770.62;;;14.01;100.00
63970;BME280;50156;37.772;-122.432;2022-08-21T04:45:52;100773.77;;;13.98;100.00
63970;BME280;50156;37.772;-122.432;2022-08-21T04:48:22;100774.85;;;14.03;100.00
63970;BME280;50156;37.772;-122.432;2022-08-21T04:50:54;100774.52;;;14.01;100.00
63970;BME280;50156;37.772;-122.432;2022-08-21T04:53:28;100779.21;;;14.08;100.00
63970;BME280;50156;37.772;-122.432;2022-08-21T04:56:02;100783.56;;;14.01;100.00
63970;BME280;50156;37.772;-122.432;2022-08-21T04:58:32;100781.05;;;14.01;100.00
63970;BME280;50156;37.772;-122.432;2022-08-21T05:01:03;100780.61;;;13.97;100.00
63970;BME280;50156;37.772;-122.432;2022-08-21T05:03:34;100780.92;;;13.99;100.00
63970;BME280;50156;37.772;-122.432;2022-08-21T05:06:06;100785.81;;;14.03;100.00
63970;BME280;50156;37.772;-122.432;2022-08-21T05:08:35;100785.50;;;14.01;100.00
63970;BME280;50156;37.772;-122.432;2022-08-21T05:11:05;100794.05;;;14.03;100.00
63970;BME280;50156;37.772;-122.432;2022-08-21T05:13:36;100794.08;;;13.99;100.00
63970;BME280;50156;37.772;-122.432;2022-08-21T05:16:04;100797.37;;;14.04;100.00
63970;BME280;50156;37.772;-122.432;2022-08-21T05:18:34;100802.42;;;14.09;100.00
63970;BME280;50156;37.772;-122.432;2022-08-21T05:21:03;100801.94;;;14.09;100.00
63970;BME280;50156;37.772;-122.432;2022-08-21T05:23:31;100804.39;;;14.08;100.00
63970;BME280;50156;37.772;-122.432;2022-08-21T05:26:00;100810.25;;;14.12;100.00
63970;BME280;50156;37.772;-122.432;2022-08-21T05:28:28;100809.76;;;14.04;100.00
63970;BME280;50156;37.772;-122.432;2022-08-21T05:30:57;100808.67;;;14.12;100.00
63970;BME280;50156;37.772;-122.432;2022-08-21T05:33:26;100811.24;;;14.08;100.00
63970;BME280;50156;37.772;-122.432;2022-08-21T05:35:55;100818.10;;;14.17;100.00
63970;BME280;50156;37.772;-122.432;2022-08-21T05:38:24;100820.85;;;14.15;100.00
63970;BME280;50156;37.772;-122.432;2022-08-21T05:40:53;100828.77;;;14.19;100.00
63970;BME280;50156;37.772;-122.432;2022-08-21T05:43:22;100825.65;;;14.11;100.00
63970;BME280;50156;37.772;-122.432;2022-08-21T05:45:50;100827.40;;;14.18;100.00
63970;BME280;50156;37.772;-122.432;2022-08-21T05:48:22;100830.33;;;14.21;100.00
63970;BME280;50156;37.772;-122.432;2022-08-21T05:50:52;100823.57;;;14.17;100.00
63970;BME280;50156;37.772;-122.432;2022-08-21T05:53:22;100819.03;;;14.12;100.00
63970;BME280;50156;37.772;-122.432;2022-08-21T05:55:51;100823.85;;;14.13;100.00
63970;BME280;50156;37.772;-122.432;2022-08-21T05:58:21;100818.75;;;14.12;100.00
63970;BME280;50156;37.772;-122.432;2022-08-21T06:00:50;100816.58;;;14.10;100.00
63970;BME280;50156;37.772;-122.432;2022-08-21T06:03:21;100820.26;;;14.09;100.00
63970;BME280;50156;37.772;-122.432;2022-08-21T06:05:50;100825.16;;;14.12;100.00
63970;BME280;50156;37.772;-122.432;2022-08-21T06:08:20;100821.06;;;14.19;100.00
63970;BME280;50156;37.772;-122.432;2022-08-21T06:10:50;100825.57;;;14.20;100.00
63970;BME280;50156;37.772;-122.432;2022-08-21T06:13:20;100822.54;;;14.20;100.00
63970;BME280;50156;37.772;-122.432;2022-08-21T06:15:50;100820.13;;;14.17;100.00
63970;BME280;50156;37.772;-122.432;2022-08-21T06:18:27;100821.86;;;14.21;100.00
63970;BME280;50156;37.772;-122.432;2022-08-21T06:20:56;100820.61;;;14.25;100.00
63970;BME280;50156;37.772;-122.432;2022-08-21T06:23:25;100819.11;;;14.14;100.00
63970;BME280;50156;37.772;-122.432;2022-08-21T06:25:53;100825.96;;;14.05;100.00
63970;BME280;50156;37.772;-122.432;2022-08-21T06:28:22;100835.45;;;14.04;100.00
63970;BME280;50156;37.772;-122.432;2022-08-21T06:30:50;100834.85;;;13.95;100.00
63970;BME280;50156;37.772;-122.432;2022-08-21T06:33:19;100838.40;;;13.95;100.00
63970;BME280;50156;37.772;-122.432;2022-08-21T06:35:48;100843.79;;;13.91;100.00
63970;BME280;50156;37.772;-122.432;2022-08-21T06:38:16;100840.22;;;13.89;100.00
63970;BME280;50156;37.772;-122.432;2022-08-21T06:40:45;100855.41;;;13.83;100.00
63970;BME280;50156;37.772;-122.432;2022-08-21T06:43:15;100858.37;;;13.82;100.00
63970;BME280;50156;37.772;-122.432;2022-08-21T06:45:45;100862.60;;;13.80;100.00
63970;BME280;50156;37.772;-122.432;2022-08-21T06:48:13;100866.24;;;13.80;100.00
63970;BME280;50156;37.772;-122.432;2022-08-21T06:50:42;100880.29;;;13.70;100.00
63970;BME280;50156;37.772;-122.432;2022-08-21T06:53:13;100883.04;;;13.76;100.00
63970;BME280;50156;37.772;-122.432;2022-08-21T06:55:42;100893.67;;;13.75;100.00
63970;BME280;50156;37.772;-122.432;2022-08-21T06:58:11;100890.61;;;13.81;100.00
63970;BME280;50156;37.772;-122.432;2022-08-21T07:00:42;100890.73;;;13.78;100.00
63970;BME280;50156;37.772;-122.432;2022-08-21T07:03:18;100892.84;;;13.81;100.00
63970;BME280;50156;37.772;-122.432;2022-08-21T07:05:47;100899.51;;;13.73;100.00
63970;BME280;50156;37.772;-122.432;2022-08-21T07:08:15;100901.78;;;13.73;100.00
63970;BME280;50156;37.772;-122.432;2022-08-21T07:10:45;100903.78;;;13.72;100.00
63970;BME280;50156;37.772;-122.432;2022-08-21T07:13:14;100899.93;;;13.79;100.00
63970;BME280;50156;37.772;-122.432;2022-08-21T07:15:42;100905.21;;;13.70;100.00
63970;BME280;50156;37.772;-122.432;2022-08-21T07:18:12;100908.73;;;13.78;100.00
63970;BME280;50156;37.772;-122.432;2022-08-21T07:20:41;100914.53;;;13.85;100.00
63970;BME280;50156;37.772;-122.432;2022-08-21T07:23:14;100914.63;;;13.79;100.00
63970;BME280;50156;37.772;-122.432;2022-08-21T07:25:46;100921.39;;;13.82;100.00
63970;BME280;50156;37.772;-122.432;2022-08-21T07:28:15;100921.85;;;13.78;100.00
63970;BME280;50156;37.772;-122.432;2022-08-21T07:30:43;100925.44;;;13.76;100.00
63970;BME280;50156;37.772;-122.432;2022-08-21T07:33:12;100934.22;;;13.78;100.00
63970;BME280;50156;37.772;-122.432;2022-08-21T07:35:40;100936.99;;;13.71;100.00
63970;BME280;50156;37.772;-122.432;2022-08-21T07:38:09;100942.28;;;13.68;100.00
63970;BME280;50156;37.772;-122.432;2022-08-21T07:40:38;100946.76;;;13.72;100.00
63970;BME280;50156;37.772;-122.432;2022-08-21T07:43:06;100948.06;;;13.68;100.00
63970;BME280;50156;37.772;-122.432;2022-08-21T07:45:35;100948.74;;;13.67;100.00
63970;BME280;50156;37.772;-122.432;2022-08-21T07:48:05;100950.33;;;13.70;100.00
63970;BME280;50156;37.772;-122.432;2022-08-21T07:50:33;100945.68;;;13.74;100.00
63970;BME280;50156;37.772;-122.432;2022-08-21T07:53:02;100942.81;;;13.73;100.00
63970;BME280;50156;37.772;-122.432;2022-08-21T07:55:31;100948.91;;;13.73;100.00
63970;BME280;50156;37.772;-122.432;2022-08-21T07:57:59;100947.86;;;13.66;100.00
63970;BME280;50156;37.772;-122.432;2022-08-21T08:00:29;100945.43;;;13.64;100.00
63970;BME280;50156;37.772;-122.432;2022-08-21T08:02:58;100944.85;;;13.64;100.00
63970;BME280;50156;37.772;-122.432;2022-08-21T08:05:29;100941.52;;;13.63;100.00
63970;BME280;50156;37.772;-122.432;2022-08-21T08:07:58;100937.37;;;13.59;100.00
63970;BME280;50156;37.772;-122.432;2022-08-21T08:10:27;100944.00;;;13.59;100.00
63970;BME280;50156;37.772;-122.432;2022-08-21T08:12:56;100942.53;;;13.57;100.00
63970;BME280;50156;37.772;-122.432;2022-08-21T08:15:26;100951.47;;;13.58;100.00
63970;BME280;50156;37.772;-122.432;2022-08-21T08:17:56;100955.06;;;13.61;100.00
63970;BME280;50156;37.772;-122.432;2022-08-21T08:20:25;100961.48;;;13.57;100.00
63970;BME280;50156;37.772;-122.432;2022-08-21T08:22:55;100958.84;;;13.58;100.00
63970;BME280;50156;37.772;-122.432;2022-08-21T08:25:26;100960.71;;;13.58;100.00
63970;BME280;50156;37.772;-122.432;2022-08-21T08:27:55;100961.14;;;13.62;100.00
63970;BME280;50156;37.772;-122.432;2022-08-21T08:30:24;100956.88;;;13.59;100.00
63970;BME280;50156;37.772;-122.432;2022-08-21T08:32:52;100955.37;;;13.60;100.00
63970;BME280;50156;37.772;-122.432;2022-08-21T08:35:20;100954.28;;;13.62;100.00
63970;BME280;50156;37.772;-122.432;2022-08-21T08:37:49;100955.11;;;13.60;100.00
63970;BME280;50156;37.772;-122.432;2022-08-21T08:40:25;100950.26;;;13.58;100.00
63970;BME280;50156;37.772;-122.432;2022-08-21T08:42:56;100949.75;;;13.55;100.00
63970;BME280;50156;37.772;-122.432;2022-08-21T08:45:24;100947.17;;;13.54;100.00
63970;BME280;50156;37.772;-122.432;2022-08-21T08:47:57;100945.91;;;13.49;100.00
63970;BME280;50156;37.772;-122.432;2022-08-21T08:50:37;100949.53;;;13.45;100.00
63970;BME280;50156;37.772;-122.432;2022-08-21T08:53:11;100948.75;;;13.45;100.00
63970;BME280;50156;37.772;-122.432;2022-08-21T08:55:42;100948.88;;;13.42;100.00
63970;BME280;50156;37.772;-122.432;2022-08-21T08:58:16;100950.24;;;13.39;100.00
63970;BME280;50156;37.772;-122.432;2022-08-21T09:00:47;100952.41;;;13.40;100.00
63970;BME280;50156;37.772;-122.432;2022-08-21T09:03:18;100954.06;;;13.34;100.00
63970;BME280;50156;37.772;-122.432;2022-08-21T09:05:55;100950.24;;;13.34;100.00
63970;BME280;50156;37.772;-122.432;2022-08-21T09:08:38;100953.77;;;13.34;100.00
63970;BME280;50156;37.772;-122.432;2022-08-21T09:11:16;100951.15;;;13.31;100.00
63970;BME280;50156;37.772;-122.432;2022-08-21T09:13:58;100960.54;;;13.30;100.00
63970;BME280;50156;37.772;-122.432;2022-08-21T09:16:37;100962.92;;;13.36;100.00
63970;BME280;50156;37.772;-122.432;2022-08-21T09:19:22;100961.43;;;13.31;100.00
63970;BME280;50156;37.772;-122.432;2022-08-21T09:22:03;100970.02;;;13.35;100.00
63970;BME280;50156;37.772;-122.432;2022-08-21T09:24:42;100973.71;;;13.35;100.00
63970;BME280;50156;37.772;-122.432;2022-08-21T09:27:17;100981.60;;;13.33;100.00
63970;BME280;50156;37.772;-122.432;2022-08-21T09:29:48;100979.90;;;13.36;100.00
63970;BME280;50156;37.772;-122.432;2022-08-21T09:32:19;100978.37;;;13.38;100.00
63970;BME280;50156;37.772;-122.432;2022-08-21T09:35:01;100981.49;;;13.30;100.00
63970;BME280;50156;37.772;-122.432;2022-08-21T09:37:33;100982.08;;;13.30;100.00
63970;BME280;50156;37.772;-122.432;2022-08-21T09:40:19;100982.36;;;13.31;100.00
63970;BME280;50156;37.772;-122.432;2022-08-21T09:42:55;100978.86;;;13.24;100.00
63970;BME280;50156;37.772;-122.432;2022-08-21T09:45:24;100980.77;;;13.22;100.00
63970;BME280;50156;37.772;-122.432;2022-08-21T09:47:53;100982.58;;;13.17;100.00
63970;BME280;50156;37.772;-122.432;2022-08-21T09:50:24;100978.17;;;13.17;100.00
63970;BME280;50156;37.772;-122.432;2022-08-21T09:52:56;100978.95;;;13.18;100.00
63970;BME280;50156;37.772;-122.432;2022-08-21T09:55:33;100986.29;;;13.20;100.00
63970;BME280;50156;37.772;-122.432;2022-08-21T09:58:02;100982.57;;;13.26;100.00
63970;BME280;50156;37.772;-122.432;2022-08-21T10:00:33;100981.96;;;13.32;100.00
63970;BME280;50156;37.772;-122.432;2022-08-21T10:03:12;100987.36;;;13.33;100.00
63970;BME280;50156;37.772;-122.432;2022-08-21T10:05:53;100988.64;;;13.26;100.00
63970;BME280;50156;37.772;-122.432;2022-08-21T10:08:25;100988.70;;;13.28;100.00
63970;BME280;50156;37.772;-122.432;2022-08-21T10:10:57;100988.98;;;13.27;100.00
63970;BME280;50156;37.772;-122.432;2022-08-21T10:13:38;100996.68;;;13.27;100.00
63970;BME280;50156;37.772;-122.432;2022-08-21T10:16:20;100991.41;;;13.30;100.00
63970;BME280;50156;37.772;-122.432;2022-08-21T10:19:02;100993.13;;;13.26;100.00
63970;BME280;50156;37.772;-122.432;2022-08-21T10:21:36;100996.06;;;13.23;100.00
63970;BME280;50156;37.772;-122.432;2022-08-21T10:24:11;100993.79;;;13.17;100.00
63970;BME280;50156;37.772;-122.432;2022-08-21T10:26:50;100999.15;;;13.18;100.00
63970;BME280;50156;37.772;-122.432;2022-08-21T10:29:42;100993.35;;;13.11;100.00
63970;BME280;50156;37.772;-122.432;2022-08-21T10:32:24;100991.57;;;13.10;100.00
63970;BME280;50156;37.772;-122.432;2022-08-21T10:35:04;100997.61;;;13.09;100.00
63970;BME280;50156;37.772;-122.432;2022-08-21T10:37:44;100996.19;;;13.11;100.00
63970;BME280;50156;37.772;-122.432;2022-08-21T10:40:22;100997.78;;;13.10;100.00
63970;BME280;50156;37.772;-122.432;2022-08-21T10:43:05;100997.72;;;13.11;100.00
63970;BME280;50156;37.772;-122.432;2022-08-21T10:45:48;100997.41;;;13.09;100.00
63970;BME280;50156;37.772;-122.432;2022-08-21T10:48:29;100997.37;;;13.06;100.00
63970;BME280;50156;37.772;-122.432;2022-08-21T10:51:10;100998.22;;;13.08;100.00
63970;BME280;50156;37.772;-122.432;2022-08-21T10:53:49;101006.13;;;13.09;100.00
63970;BME280;50156;37.772;-122.432;2022-08-21T10:56:22;101013.37;;;13.12;100.00
63970;BME280;50156;37.772;-122.432;2022-08-21T10:59:02;101015.03;;;13.11;100.00
63970;BME280;50156;37.772;-122.432;2022-08-21T11:01:42;101013.76;;;13.16;100.00
63970;BME280;50156;37.772;-122.432;2022-08-21T11:04:15;101012.35;;;13.11;100.00
63970;BME280;50156;37.772;-122.432;2022-08-21T11:06:49;101014.07;;;13.07;100.00
63970;BME280;50156;37.772;-122.432;2022-08-21T11:09:24;101021.90;;;13.11;100.00
63970;BME280;50156;37.772;-122.432;2022-08-21T11:11:57;101025.18;;;13.15;100.00
63970;BME280;50156;37.772;-122.432;2022-08-21T11:14:38;101027.50;;;13.10;100.00
63970;BME280;50156;37.772;-122.432;2022-08-21T11:17:11;101025.71;;;13.08;100.00
63970;BME280;50156;37.772;-122.432;2022-08-21T11:19:45;101027.03;;;13.06;100.00
63970;BME280;50156;37.772;-122.432;2022-08-21T11:22:21;101022.64;;;13.15;100.00
63970;BME280;50156;37.772;-122.432;2022-08-21T11:24:59;101021.96;;;13.13;100.00
63970;BME280;50156;37.772;-122.432;2022-08-21T11:27:36;101024.48;;;13.17;100.00
63970;BME280;50156;37.772;-122.432;2022-08-21T11:30:08;101028.38;;;13.11;100.00
63970;BME280;50156;37.772;-122.432;2022-08-21T11:32:55;101031.01;;;13.15;100.00
63970;BME280;50156;37.772;-122.432;2022-08-21T11:35:32;101030.00;;;13.23;100.00
63970;BME280;50156;37.772;-122.432;2022-08-21T11:38:14;101034.58;;;13.25;100.00
63970;BME280;50156;37.772;-122.432;2022-08-21T11:41:00;101030.71;;;13.27;100.00
63970;BME280;50156;37.772;-122.432;2022-08-21T11:43:39;101034.07;;;13.30;100.00
63970;BME280;50156;37.772;-122.432;2022-08-21T11:46:16;101036.80;;;13.29;100.00
63970;BME280;50156;37.772;-122.432;2022-08-21T11:49:04;101034.82;;;13.33;100.00
63970;BME280;50156;37.772;-122.432;2022-08-21T11:51:40;101037.40;;;13.36;100.00
63970;BME280;50156;37.772;-122.432;2022-08-21T11:54:21;101033.70;;;13.31;100.00
63970;BME280;50156;37.772;-122.432;2022-08-21T11:56:56;101029.75;;;13.33;100.00
63970;BME280;50156;37.772;-122.432;2022-08-21T11:59:34;101029.97;;;13.37;100.00
63970;BME280;50156;37.772;-122.432;2022-08-21T12:02:11;101029.51;;;13.40;100.00
63970;BME280;50156;37.772;-122.432;2022-08-21T12:04:46;101034.91;;;13.42;100.00
63970;BME280;50156;37.772;-122.432;2022-08-21T12:07:29;101043.12;;;13.48;100.00
63970;BME280;50156;37.772;-122.432;2022-08-21T12:09:59;101046.44;;;13.53;100.00
63970;BME280;50156;37.772;-122.432;2022-08-21T12:12:31;101046.77;;;13.54;100.00
63970;BME280;50156;37.772;-122.432;2022-08-21T12:15:16;101049.13;;;13.47;100.00
63970;BME280;50156;37.772;-122.432;2022-08-21T12:17:57;101053.57;;;13.49;100.00
63970;BME280;50156;37.772;-122.432;2022-08-21T12:21:02;101054.76;;;13.53;100.00
63970;BME280;50156;37.772;-122.432;2022-08-21T12:23:33;101058.82;;;13.53;100.00
63970;BME280;50156;37.772;-122.432;2022-08-21T12:26:23;101059.22;;;13.52;100.00
63970;BME280;50156;37.772;-122.432;2022-08-21T12:29:02;101057.56;;;13.57;100.00
63970;BME280;50156;37.772;-122.432;2022-08-21T12:31:31;101064.19;;;13.56;100.00
63970;BME280;50156;37.772;-122.432;2022-08-21T12:34:04;101069.01;;;13.56;100.00